Terminal Aerodrome Forecast
Issued by NWS

Home | Current Version | Previous Version | Text Only | Print | Product List | Glossary On
Versions: 1 2 3 4 5 6 7 8 9 10 11 12 13 14 15 16 17
000
FTUS43 KAPX 311202 RRA
TAFPLN
TAF
KPLN 311202Z 3112/0112 23008KT P6SM SCT080
     FM311400 29010KT P6SM VCSH BKN070
     FM311900 28011G18KT P6SM SCT070
     FM010100 29005KT P6SM BKN060
     FM010400 27004KT 6SM -SHRA OVC060=

USA.gov is the U.S. government's official web portal to all federal, state and local government web resources and services.